Time,TemperatureF,DewpointF,PressureIn,WindDirection,WindDirectionDegrees,WindSpeedMPH,WindSpeedGustMPH,Humidity,HourlyPrecipIn,Conditions,Clouds,dailyrainin,SoftwareType,DateUTC
2013-09-18 00:12:00,47.0,37.0,29.81,West,278,5.0,8.0,67,0.00,,,0.00,,2013-09-18 07:12:00,
2013-09-18 00:22:00,47.0,37.0,29.81,WNW,292,5.0,7.0,67,0.00,,,0.00,,2013-09-18 07:22:00,
2013-09-18 00:42:00,47.0,36.0,29.81,West,273,2.0,5.0,66,0.00,,,0.00,,2013-09-18 07:42:00,
2013-09-18 00:52:00,47.0,37.0,29.83,WSW,256,4.0,7.0,67,0.00,,,0.00,,2013-09-18 07:52:00,
2013-09-18 01:11:00,48.0,36.0,29.84,WNW,298,4.0,6.0,64,0.00,,,0.00,,2013-09-18 08:11:00,
2013-09-18 01:22:00,48.0,36.0,29.84,WNW,284,3.0,6.0,62,0.00,,,0.00,,2013-09-18 08:22:00,
2013-09-18 01:52:00,47.0,35.0,29.84,West,271,6.0,10.0,64,0.00,,,0.00,,2013-09-18 08:52:00,
2013-09-18 02:12:00,47.0,36.0,29.84,WNW,282,5.0,8.0,66,0.00,,,0.00,,2013-09-18 09:12:00,
2013-09-18 02:22:00,47.0,37.0,29.84,WNW,299,6.0,7.0,67,0.00,,,0.00,,2013-09-18 09:22:00,
2013-09-18 02:43:00,47.0,37.0,29.84,West,266,4.0,8.0,68,0.00,,,0.00,,2013-09-18 09:43:00,
2013-09-18 02:53:00,48.0,38.0,29.84,WNW,292,6.0,9.0,67,0.00,,,0.00,,2013-09-18 09:53:00,
2013-09-18 03:13:00,47.0,37.0,29.84,WNW,292,5.0,8.0,68,0.00,,,0.00,,2013-09-18 10:13:00,
2013-09-18 03:23:00,47.0,37.0,29.84,WNW,295,4.0,7.0,69,0.00,,,0.00,,2013-09-18 10:23:00,
2013-09-18 03:53:00,48.0,37.0,29.87,WNW,292,6.0,10.0,65,0.00,,,0.00,,2013-09-18 10:53:00,
2013-09-18 04:12:00,48.0,37.0,29.87,WNW,297,6.0,9.0,65,0.00,,,0.00,,2013-09-18 11:12:00,
2013-09-18 04:22:00,48.0,37.0,29.87,WNW,297,5.0,8.0,65,0.00,,,0.00,,2013-09-18 11:22:00,
2013-09-18 04:42:00,47.0,37.0,29.87,South,188,1.0,3.0,67,0.00,,,0.00,,2013-09-18 11:42:00,
2013-09-18 04:52:00,46.0,36.0,29.87,SSW,202,1.0,2.0,67,0.00,,,0.00,,2013-09-18 11:52:00,
2013-09-18 05:12:00,47.0,38.0,29.87,SW,231,2.0,5.0,70,0.00,,,0.00,,2013-09-18 12:12:00,
2013-09-18 05:22:00,47.0,37.0,29.87,SW,236,4.0,6.0,67,0.00,,,0.00,,2013-09-18 12:22:00,
2013-09-18 05:42:00,47.0,37.0,29.87,West,281,3.0,6.0,67,0.00,,,0.00,,2013-09-18 12:42:00,
2013-09-18 05:52:00,47.0,36.0,29.87,SSW,207,1.0,5.0,65,0.00,,,0.00,,2013-09-18 12:52:00,
2013-09-18 06:11:00,47.0,35.0,29.87,SSE,158,2.0,2.0,64,0.00,,,0.00,,2013-09-18 13:11:00,
2013-09-18 21:14:00,52.0,28.0,29.90,ESE,123,2.0,3.0,40,0.00,,,0.00,,2013-09-19 04:14:00,
2013-09-18 21:25:00,51.0,28.0,29.91,ESE,112,2.0,3.0,40,0.00,,,0.00,,2013-09-19 04:25:00,